createdAt,value
2023-10-04T00:03:27.669Z,65
2023-10-04T00:08:29.156Z,66
2023-10-04T00:13:30.364Z,65
2023-10-04T00:18:32.294Z,66
2023-10-04T00:23:33.752Z,66
2023-10-04T00:28:35.509Z,66
2023-10-04T00:33:36.900Z,66
2023-10-04T00:38:39.637Z,66
2023-10-04T00:43:40.243Z,67
2023-10-04T00:48:42.198Z,67
2023-10-04T00:53:44.155Z,67
2023-10-04T00:58:45.674Z,67
2023-10-04T01:03:47.651Z,68
2023-10-04T01:08:49.274Z,68
2023-10-04T01:13:50.840Z,69
2023-10-04T01:18:52.789Z,68
2023-10-04T01:23:54.431Z,69
2023-10-04T02:29:17.341Z,72
2023-10-04T03:59:55.172Z,75
2023-10-04T04:04:56.457Z,75
2023-10-04T04:09:58.002Z,74
2023-10-04T04:20:01.842Z,75
2023-10-04T04:25:03.331Z,74
2023-10-04T04:45:09.871Z,74
2023-10-04T04:55:13.313Z,74
2023-10-04T05:05:16.819Z,74
2023-10-04T05:15:20.475Z,75
2023-10-04T05:25:24.483Z,74
2023-10-04T05:35:27.582Z,75
2023-10-04T05:40:28.801Z,75
2023-10-04T05:55:34.158Z,76
2023-10-04T06:05:37.073Z,76
2023-10-04T06:10:39.054Z,76
2023-10-04T06:30:45.955Z,75
2023-10-04T06:35:47.780Z,73
2023-10-04T06:40:49.113Z,72
2023-10-04T06:50:52.334Z,71
2023-10-04T07:10:58.044Z,68
2023-10-04T07:15:59.352Z,66
2023-10-04T07:21:00.944Z,65
2023-10-04T07:26:02.622Z,64
2023-10-04T07:31:04.605Z,62
2023-10-04T07:41:07.989Z,60
2023-10-04T07:46:10.115Z,60
2023-10-04T07:56:14.081Z,60
2023-10-04T08:01:18.052Z,59
2023-10-04T08:11:19.062Z,57
2023-10-04T08:16:20.892Z,57
2023-10-04T08:26:23.540Z,57
2023-10-04T09:21:41.897Z,47
2023-10-04T09:26:43.166Z,46
2023-10-04T09:31:44.569Z,45
2023-10-04T09:41:47.987Z,39
2023-10-04T09:46:49.445Z,37
2023-10-04T09:56:53.311Z,38
2023-10-04T10:01:55.404Z,38
2023-10-04T10:06:56.809Z,38
2023-10-04T10:17:00.186Z,37
2023-10-04T10:22:01.916Z,35
2023-10-04T10:27:03.827Z,33
2023-10-04T10:37:07.221Z,33
2023-10-04T10:42:08.681Z,31
2023-10-04T10:47:10.638Z,31
2023-10-04T10:57:14.049Z,30
2023-10-04T11:02:15.496Z,30
2023-10-04T11:17:20.087Z,29
2023-10-04T11:27:23.126Z,31
2023-10-04T11:32:24.450Z,31
2023-10-04T11:37:25.851Z,31
2023-10-04T11:42:27.369Z,33
2023-10-04T11:47:28.554Z,34
2023-10-04T11:52:30.558Z,34
2023-10-04T11:57:32.071Z,35
2023-10-04T12:02:33.442Z,35
2023-10-04T12:07:35.000Z,35
2023-10-04T12:12:36.480Z,35
2023-10-04T12:17:38.465Z,35
2023-10-04T12:22:40.558Z,37
2023-10-04T12:27:42.736Z,37
2023-10-04T12:32:44.499Z,36
2023-10-04T12:37:45.742Z,36
2023-10-04T12:42:47.188Z,36
2023-10-04T12:47:49.323Z,37
2023-10-04T12:52:51.281Z,37
2023-10-04T12:57:53.123Z,37
2023-10-04T13:02:57.169Z,37
2023-10-04T13:07:56.626Z,37
2023-10-04T13:12:58.637Z,39
2023-10-04T13:18:00.333Z,39
2023-10-04T13:23:01.477Z,41
2023-10-04T13:28:03.524Z,38
2023-10-04T13:33:04.850Z,39
2023-10-04T13:38:06.437Z,38
2023-10-04T13:43:07.664Z,39
2023-10-04T13:48:09.222Z,36
2023-10-04T13:53:11.149Z,36
2023-10-04T13:58:12.898Z,35
2023-10-04T14:03:14.202Z,34
2023-10-04T14:08:16.007Z,34
2023-10-04T14:13:17.640Z,34
2023-10-04T14:18:18.884Z,35
2023-10-04T14:23:20.330Z,35
2023-10-04T14:28:21.980Z,34
2023-10-04T14:33:24.145Z,34
2023-10-04T14:38:25.958Z,34
2023-10-04T14:43:27.482Z,35
2023-10-04T14:48:29.673Z,35
2023-10-04T14:53:31.251Z,35
2023-10-04T14:58:33.060Z,34
2023-10-04T15:03:34.417Z,35
2023-10-04T15:08:36.374Z,35
2023-10-04T15:13:38.235Z,36
2023-10-04T15:18:39.733Z,36
2023-10-04T15:23:41.369Z,36
2023-10-04T15:28:42.275Z,36
2023-10-04T15:33:43.937Z,36
2023-10-04T15:38:45.189Z,36
2023-10-04T15:43:47.052Z,36
2023-10-04T15:48:49.320Z,37
2023-10-04T15:53:50.756Z,37
2023-10-04T15:58:52.149Z,38
2023-10-04T16:24:00.272Z,40
2023-10-04T16:29:01.535Z,40
2023-10-04T16:59:12.725Z,43
2023-10-04T17:04:14.860Z,44
2023-10-04T17:19:19.806Z,45
2023-10-04T17:24:21.169Z,45
2023-10-04T17:29:23.216Z,45
2023-10-04T17:34:24.678Z,46
2023-10-04T17:39:26.773Z,47
2023-10-04T18:09:37.798Z,48
2023-10-04T18:44:50.114Z,52
2023-10-04T18:59:54.173Z,53
2023-10-04T19:05:05.390Z,53
2023-10-04T19:09:57.391Z,54
2023-10-04T19:14:59.384Z,54
2023-10-04T19:20:01.192Z,55
2023-10-04T19:25:02.902Z,55
2023-10-04T19:30:03.981Z,56
2023-10-04T19:35:05.493Z,57
2023-10-04T19:40:06.771Z,58
2023-10-04T19:45:08.731Z,57
2023-10-04T19:50:10.528Z,57
2023-10-04T19:55:12.084Z,59
2023-10-04T20:00:13.909Z,59
2023-10-04T20:05:21.674Z,59
2023-10-04T20:10:23.425Z,60
2023-10-04T20:15:24.845Z,60
2023-10-04T20:20:26.846Z,60
2023-10-04T20:30:30.065Z,60
2023-10-04T20:35:31.398Z,60
2023-10-04T20:40:33.169Z,61
2023-10-04T20:45:35.072Z,61
2023-10-04T20:50:37.205Z,61
2023-10-04T20:55:38.941Z,61
2023-10-04T21:00:40.860Z,61
2023-10-04T21:05:42.353Z,63
2023-10-04T21:15:45.548Z,64
2023-10-04T21:20:46.756Z,64
2023-10-04T21:25:48.330Z,64
2023-10-04T21:30:50.511Z,64
2023-10-04T21:35:51.774Z,65
2023-10-04T21:40:53.145Z,66
2023-10-04T21:45:55.162Z,65
2023-10-04T21:50:56.923Z,65
2023-10-04T21:55:58.465Z,66
2023-10-04T22:00:59.937Z,66
2023-10-04T22:06:01.964Z,66
2023-10-04T22:11:03.499Z,67
2023-10-04T22:16:04.947Z,67
2023-10-04T22:21:06.663Z,67
2023-10-04T22:26:08.139Z,67
2023-10-04T22:31:09.940Z,67
2023-10-04T22:36:12.161Z,68
2023-10-04T22:41:13.302Z,67
2023-10-04T22:46:15.009Z,68
2023-10-04T22:51:16.366Z,68
2023-10-04T22:56:18.260Z,68
2023-10-04T23:01:19.505Z,68
2023-10-04T23:06:21.104Z,69
2023-10-04T23:11:22.994Z,69
2023-10-04T23:16:25.158Z,69
2023-10-04T23:21:26.433Z,69
2023-10-04T23:26:27.868Z,70
2023-10-04T23:31:29.849Z,70
2023-10-04T23:36:31.931Z,70
2023-10-04T23:41:33.612Z,70
2023-10-04T23:46:35.661Z,69
2023-10-04T23:51:37.511Z,69
2023-10-04T23:56:39.130Z,69
